Time;durP1;ratioP1;P1;durP2;ratioP2;P2;SDS_P1;SDS_P2;PMS_P1;PMS_P2;Temp;Humidity;BMP_temperature;BMP_pressure;BME280_temperature;BME280_humidity;BME280_pressure;Samples;Min_cycle;Max_cycle;Signal;HPM_P1;HPM_P2
2022/04/02 00:01:43;;;;;;;2.70;1.70;;;2.20;99.90;;;;;;4976283;28;20169;-81
2022/04/02 00:04:10;;;;;;;5.57;1.97;;;2.20;99.90;;;;;;4976884;28;20231;-81
2022/04/02 00:06:36;;;;;;;2.20;1.40;;;2.10;99.90;;;;;;4977009;28;20312;-83
2022/04/02 00:09:03;;;;;;;3.03;1.43;;;2.20;99.90;;;;;;4977023;28;20291;-83
2022/04/02 00:11:29;;;;;;;2.93;1.23;;;2.20;99.90;;;;;;4976950;28;20172;-84
2022/04/02 00:13:55;;;;;;;2.87;1.47;;;2.10;99.90;;;;;;4976220;28;20208;-84
2022/04/02 00:16:22;;;;;;;2.07;1.20;;;2.10;99.90;;;;;;4976641;28;20235;-83
2022/04/02 00:18:50;;;;;;;1.87;1.33;;;2.10;99.90;;;;;;5404874;23;20282;-85
2022/04/02 00:21:17;;;;;;;1.87;1.17;;;2.10;99.90;;;;;;4972673;28;20197;-87
2022/04/02 00:23:46;;;;;;;3.23;1.30;;;2.10;99.90;;;;;;4956258;29;20196;-85
2022/04/02 00:26:20;;;;;;;2.23;1.10;;;2.10;99.90;;;;;;4956472;28;20181;-86
2022/04/02 00:28:48;;;;;;;3.47;1.30;;;2.10;99.90;;;;;;4957608;28;20165;-86
2022/04/02 00:31:14;;;;;;;3.20;1.50;;;2.10;99.90;;;;;;4957288;28;20245;-86
2022/04/02 00:33:42;;;;;;;2.80;1.30;;;2.10;99.90;;;;;;4957351;28;20201;-86
2022/04/02 00:36:08;;;;;;;2.97;1.50;;;2.00;99.90;;;;;;4957124;28;20177;-86
2022/04/02 00:38:34;;;;;;;3.10;1.43;;;2.00;99.90;;;;;;4957531;28;20210;-85
2022/04/02 00:41:00;;;;;;;3.40;1.33;;;2.00;99.90;;;;;;4957430;28;20170;-86
2022/04/02 00:43:38;;;;;;;3.07;1.40;;;2.00;99.90;;;;;;4957209;29;20307;-86
2022/04/02 00:46:09;;;;;;;3.53;1.50;;;2.00;99.90;;;;;;4972017;28;20173;-86
2022/04/02 00:48:35;;;;;;;3.53;1.17;;;2.00;99.90;;;;;;4956499;29;20169;-87
2022/04/02 00:51:02;;;;;;;2.87;1.37;;;2.00;99.90;;;;;;4990972;28;20553;-87
2022/04/02 00:53:36;;;;;;;1.97;1.70;;;1.90;99.90;;;;;;4996137;28;20200;-85
2022/04/02 00:56:04;;;;;;;2.47;1.50;;;2.00;99.90;;;;;;4996062;28;20171;-87
2022/04/02 00:58:30;;;;;;;2.63;1.40;;;1.90;99.90;;;;;;4995939;28;20258;-84
2022/04/02 01:00:55;;;;;;;4.07;1.80;;;1.80;99.90;;;;;;4995775;28;20251;-86
2022/04/02 01:03:21;;;;;;;2.63;1.60;;;1.80;99.90;;;;;;4994588;28;20183;-87
2022/04/02 01:05:48;;;;;;;2.50;1.53;;;1.80;99.90;;;;;;4994340;28;20179;-86
2022/04/02 01:08:14;;;;;;;2.63;1.33;;;1.90;99.90;;;;;;4995794;28;20255;-87
2022/04/02 01:10:41;;;;;;;3.80;1.60;;;1.90;99.90;;;;;;4995462;28;20334;-85
2022/04/02 01:13:08;;;;;;;3.73;1.43;;;1.90;99.90;;;;;;4993887;28;20212;-86
2022/04/02 01:15:34;;;;;;;2.07;1.20;;;1.90;99.90;;;;;;4995510;28;20172;-86
2022/04/02 01:18:00;;;;;;;3.10;1.53;;;1.90;99.90;;;;;;4995307;28;20176;-86
2022/04/02 01:20:29;;;;;;;2.73;1.40;;;1.80;99.90;;;;;;4994840;28;20231;-85
2022/04/02 01:22:56;;;;;;;2.53;1.50;;;1.80;99.90;;;;;;4995700;28;20164;-86
2022/04/02 01:25:21;;;;;;;1.93;1.60;;;1.70;99.90;;;;;;4994793;28;20175;-85
2022/04/02 01:27:47;;;;;;;3.43;1.63;;;1.70;99.90;;;;;;4993980;28;20178;-85
2022/04/02 01:30:15;;;;;;;5.20;1.60;;;1.70;99.90;;;;;;4993985;28;20187;-83
2022/04/02 01:32:42;;;;;;;6.40;1.90;;;1.50;99.90;;;;;;4993889;28;20242;-84
2022/04/02 01:35:09;;;;;;;3.70;1.67;;;1.50;99.90;;;;;;4994853;28;20175;-85
2022/04/02 01:37:39;;;;;;;3.40;1.67;;;1.40;99.90;;;;;;4995101;28;20176;-85
2022/04/02 01:40:06;;;;;;;1.80;1.30;;;1.50;99.90;;;;;;4995067;28;20614;-86
2022/04/02 01:42:32;;;;;;;5.00;1.70;;;1.50;99.90;;;;;;4993787;28;20180;-86
2022/04/02 01:44:58;;;;;;;3.67;1.77;;;1.40;99.90;;;;;;4993995;28;20686;-84
2022/04/02 01:47:24;;;;;;;3.93;1.80;;;1.30;99.90;;;;;;4994220;28;20175;-83
2022/04/02 01:49:50;;;;;;;4.43;1.83;;;1.30;99.90;;;;;;4994812;28;20626;-85
2022/04/02 01:52:18;;;;;;;3.17;1.43;;;1.40;99.90;;;;;;4994975;28;20172;-86
2022/04/02 01:54:44;;;;;;;3.57;1.73;;;1.40;99.90;;;;;;4993809;28;20292;-86
2022/04/02 01:57:11;;;;;;;5.30;1.70;;;1.40;99.90;;;;;;4994870;28;20180;-85
2022/04/02 01:59:38;;;;;;;4.73;1.73;;;1.40;99.90;;;;;;4995005;28;20200;-81
2022/04/02 02:02:04;;;;;;;2.53;1.80;;;1.30;99.90;;;;;;4994798;28;20176;-86
2022/04/02 02:04:31;;;;;;;4.63;2.10;;;1.30;99.90;;;;;;4994761;28;20668;-86
2022/04/02 02:06:57;;;;;;;4.40;1.63;;;1.30;99.90;;;;;;4994846;28;20167;-83
2022/04/02 02:09:22;;;;;;;4.80;2.07;;;1.40;99.90;;;;;;4994873;28;20219;-85
2022/04/02 02:11:48;;;;;;;3.33;1.70;;;1.30;99.90;;;;;;4994815;28;20207;-85
2022/04/02 02:14:14;;;;;;;3.90;2.07;;;1.30;99.90;;;;;;4994804;28;20713;-84
2022/04/02 02:16:39;;;;;;;4.47;1.70;;;1.20;99.90;;;;;;4993803;28;20220;-80
2022/04/02 02:19:05;;;;;;;3.13;1.60;;;1.20;99.90;;;;;;4994545;28;20223;-83
2022/04/02 02:21:31;;;;;;;5.17;1.60;;;1.10;99.90;;;;;;4993206;28;20208;-85
2022/04/02 02:23:56;;;;;;;1.83;1.63;;;1.20;99.90;;;;;;4994738;28;20255;-83
2022/04/02 02:26:23;;;;;;;1.90;1.60;;;1.10;99.90;;;;;;4998529;28;20183;-84
2022/04/02 02:28:49;;;;;;;3.90;1.90;;;1.10;99.90;;;;;;4998275;28;20175;-85
2022/04/02 02:31:15;;;;;;;2.90;1.73;;;1.10;99.90;;;;;;4998317;28;20168;-83
2022/04/02 02:36:25;;;;;;;3.53;1.67;;;1.00;99.90;;;;;;4997837;28;20515;-83
2022/04/02 02:38:51;;;;;;;4.07;1.97;;;1.00;99.90;;;;;;4998052;28;20184;-85
2022/04/02 02:41:17;;;;;;;2.93;1.67;;;1.00;99.90;;;;;;4997930;28;20191;-84
2022/04/02 02:43:43;;;;;;;4.40;1.70;;;0.90;99.90;;;;;;4998072;28;20182;-81
2022/04/02 02:46:08;;;;;;;3.20;1.53;;;0.90;99.90;;;;;;4997002;28;20200;-83
2022/04/02 02:48:34;;;;;;;4.03;1.73;;;0.90;99.90;;;;;;4997973;28;20180;-85
2022/04/02 02:51:00;;;;;;;2.10;1.57;;;0.80;99.90;;;;;;4996444;28;20194;-84
2022/04/02 02:53:26;;;;;;;4.27;1.80;;;0.90;99.90;;;;;;4997895;28;20206;-85
2022/04/02 02:55:52;;;;;;;2.30;1.90;;;0.90;99.90;;;;;;4997918;28;20489;-85
2022/04/02 02:58:17;;;;;;;2.53;1.70;;;0.90;99.90;;;;;;4997848;28;20211;-84
2022/04/02 03:00:43;;;;;;;3.77;1.77;;;0.90;99.90;;;;;;4998088;28;20606;-84
2022/04/02 03:03:09;;;;;;;3.67;1.63;;;0.90;99.90;;;;;;4997796;28;20182;-83
2022/04/02 03:05:35;;;;;;;4.97;1.50;;;0.90;99.90;;;;;;4997835;28;20195;-85
2022/04/02 03:08:01;;;;;;;4.20;1.90;;;0.80;99.90;;;;;;4997478;28;20183;-85
2022/04/02 03:10:28;;;;;;;2.57;1.60;;;0.80;99.90;;;;;;4997534;28;20633;-84
2022/04/02 03:12:56;;;;;;;3.67;1.70;;;0.80;99.90;;;;;;4997504;28;20208;-86
2022/04/02 03:15:23;;;;;;;5.10;1.60;;;0.80;99.90;;;;;;4996313;28;20202;-86
2022/04/02 03:17:50;;;;;;;2.80;1.40;;;0.80;99.90;;;;;;4997387;28;20180;-87
2022/04/02 03:20:18;;;;;;;3.40;1.67;;;0.80;99.90;;;;;;4996815;28;20239;-86
2022/04/02 03:22:45;;;;;;;4.33;1.73;;;0.70;99.90;;;;;;4997434;28;20176;-85
2022/04/02 03:25:13;;;;;;;3.10;1.70;;;0.70;99.90;;;;;;4997389;28;20198;-82
2022/04/02 03:27:40;;;;;;;2.93;1.60;;;0.70;99.90;;;;;;4997155;28;20180;-85
2022/04/02 03:30:09;;;;;;;4.03;1.80;;;0.70;99.90;;;;;;4997286;28;20187;-82
2022/04/02 03:32:35;;;;;;;3.90;1.97;;;0.60;99.90;;;;;;4997263;28;20621;-86
2022/04/02 03:35:01;;;;;;;3.47;1.50;;;0.60;99.90;;;;;;4996870;28;20187;-82
2022/04/02 03:37:28;;;;;;;4.60;1.80;;;0.70;99.90;;;;;;4996580;28;20194;-85
2022/04/02 03:39:54;;;;;;;3.27;1.90;;;0.60;99.90;;;;;;4997257;28;20181;-84
2022/04/02 03:42:20;;;;;;;2.87;1.40;;;0.70;99.90;;;;;;4995682;28;20186;-83
2022/04/02 03:44:46;;;;;;;3.07;1.90;;;0.60;99.90;;;;;;4997023;28;20175;-85
2022/04/02 03:47:12;;;;;;;5.43;1.90;;;0.70;99.90;;;;;;4996685;28;20275;-85
2022/04/02 03:49:44;;;;;;;3.80;1.80;;;0.60;99.90;;;;;;4996210;28;20282;-85
2022/04/02 03:52:11;;;;;;;2.60;1.50;;;0.50;99.90;;;;;;4996852;28;20598;-83
2022/04/02 03:54:38;;;;;;;5.60;2.00;;;0.50;99.90;;;;;;4996616;28;20209;-83
2022/04/02 03:57:05;;;;;;;5.13;1.97;;;0.60;99.90;;;;;;4996794;28;20263;-85
2022/04/02 03:59:32;;;;;;;4.43;1.83;;;0.50;99.90;;;;;;4996246;28;20233;-84
2022/04/02 04:01:59;;;;;;;6.80;1.60;;;0.50;99.90;;;;;;4996446;28;20178;-82
2022/04/02 04:04:25;;;;;;;3.00;1.87;;;0.50;99.90;;;;;;4996614;28;20689;-82
2022/04/02 04:06:52;;;;;;;3.13;1.73;;;0.50;99.90;;;;;;4996290;28;20213;-86
2022/04/02 04:09:19;;;;;;;5.23;2.10;;;0.50;99.90;;;;;;4996427;28;20266;-85
2022/04/02 04:11:45;;;;;;;2.93;1.90;;;0.50;99.90;;;;;;4996505;28;20209;-85
2022/04/02 04:14:10;;;;;;;3.63;2.00;;;0.60;99.90;;;;;;4996097;28;20293;-83
2022/04/02 04:16:36;;;;;;;3.87;1.90;;;0.60;99.90;;;;;;4996468;28;20183;-84
2022/04/02 04:19:03;;;;;;;3.07;1.70;;;0.50;99.90;;;;;;4996077;28;20222;-86
2022/04/02 04:21:28;;;;;;;4.73;1.93;;;0.50;99.90;;;;;;4995959;28;20169;-85
2022/04/02 04:23:54;;;;;;;2.70;1.70;;;0.50;99.90;;;;;;4996490;28;20255;-85
2022/04/02 04:26:20;;;;;;;5.23;2.00;;;0.50;99.90;;;;;;4996101;28;20521;-85
2022/04/02 04:28:46;;;;;;;3.67;1.73;;;0.50;99.90;;;;;;4995275;28;20262;-84
2022/04/02 04:31:17;;;;;;;4.30;1.70;;;0.40;99.90;;;;;;4995781;28;20175;-86
2022/04/02 04:33:47;;;;;;;2.80;1.93;;;0.40;99.90;;;;;;4996009;28;20239;-85
2022/04/02 04:36:13;;;;;;;4.50;2.03;;;0.40;99.90;;;;;;4995863;28;20256;-84
2022/04/02 04:38:38;;;;;;;4.90;1.70;;;0.40;99.90;;;;;;4996019;28;20234;-84
2022/04/02 04:41:04;;;;;;;3.20;1.77;;;0.40;99.90;;;;;;4995838;28;20183;-83
2022/04/02 04:43:31;;;;;;;5.40;1.70;;;0.40;99.90;;;;;;4995520;28;20573;-85
2022/04/02 04:45:57;;;;;;;4.33;2.10;;;0.40;99.90;;;;;;4994720;28;20388;-86
2022/04/02 04:48:23;;;;;;;3.23;1.60;;;0.30;99.90;;;;;;4995134;28;20194;-85
2022/04/02 04:50:48;;;;;;;3.17;2.00;;;0.30;99.90;;;;;;4995605;28;20528;-86
2022/04/02 04:53:14;;;;;;;2.40;1.60;;;0.30;99.90;;;;;;4995695;28;20217;-86
2022/04/02 04:55:40;;;;;;;7.87;1.73;;;0.30;99.90;;;;;;4995742;28;20163;-86
2022/04/02 04:58:06;;;;;;;3.17;2.00;;;0.30;99.90;;;;;;4995697;28;20490;-85
2022/04/02 05:00:32;;;;;;;4.10;1.80;;;0.30;99.90;;;;;;4994978;28;20331;-86
2022/04/02 05:02:58;;;;;;;2.93;1.80;;;0.30;99.90;;;;;;4995072;28;20514;-86
2022/04/02 05:05:27;;;;;;;3.43;1.73;;;0.30;99.90;;;;;;4994381;28;20175;-86
2022/04/02 05:07:53;;;;;;;3.53;1.87;;;0.30;99.90;;;;;;4992804;28;20675;-85
2022/04/02 05:10:19;;;;;;;2.93;1.77;;;0.30;99.90;;;;;;4981677;28;20183;-85
2022/04/02 05:12:45;;;;;;;5.13;1.53;;;0.40;99.90;;;;;;4994173;28;20302;-86
2022/04/02 05:15:10;;;;;;;3.00;1.73;;;0.40;99.90;;;;;;4995194;28;20257;-87
2022/04/02 05:17:37;;;;;;;2.87;1.70;;;0.30;99.90;;;;;;4995402;28;20178;-86
2022/04/02 05:20:04;;;;;;;4.13;1.70;;;0.30;99.90;;;;;;4994887;28;20303;-86
2022/04/02 05:22:31;;;;;;;2.57;1.77;;;0.40;99.90;;;;;;4995280;28;20170;-85
2022/04/02 05:24:57;;;;;;;3.97;1.47;;;0.30;99.90;;;;;;4994023;28;20221;-85
2022/04/02 05:27:24;;;;;;;2.83;2.03;;;0.40;99.90;;;;;;4981038;28;20211;-85
2022/04/02 05:29:51;;;;;;;2.93;1.73;;;0.40;99.90;;;;;;4975974;28;20175;-86
2022/04/02 05:32:16;;;;;;;4.37;1.90;;;0.40;99.90;;;;;;4974133;28;20268;-86
2022/04/02 05:34:42;;;;;;;3.90;1.77;;;0.50;99.90;;;;;;4974677;28;20293;-86
2022/04/02 05:37:08;;;;;;;3.37;1.87;;;0.50;99.90;;;;;;4975600;28;20557;-86
2022/04/02 05:39:33;;;;;;;4.83;1.50;;;0.60;99.90;;;;;;4974520;28;20192;-86
2022/04/02 05:42:00;;;;;;;4.67;1.83;;;0.60;99.90;;;;;;4974411;28;20515;-85
2022/04/02 05:44:25;;;;;;;4.70;1.83;;;0.60;99.90;;;;;;4975847;28;20162;-85
2022/04/02 05:46:51;;;;;;;5.30;2.20;;;0.60;99.90;;;;;;4975704;28;20205;-84
2022/04/02 05:49:17;;;;;;;2.73;1.70;;;0.70;99.90;;;;;;4978861;28;20183;-85
2022/04/02 05:51:44;;;;;;;3.93;1.93;;;0.80;99.90;;;;;;4994687;28;20203;-86
2022/04/02 05:54:09;;;;;;;4.00;2.00;;;0.80;99.90;;;;;;4994901;28;20212;-86
2022/04/02 05:56:36;;;;;;;4.23;1.80;;;0.80;99.90;;;;;;4994894;28;20190;-85
2022/04/02 05:59:08;;;;;;;4.47;1.90;;;0.80;99.90;;;;;;4994839;28;20386;-81
2022/04/02 06:01:35;;;;;;;4.63;1.70;;;0.90;99.90;;;;;;4998928;28;20171;-83
2022/04/02 06:04:01;;;;;;;2.80;1.70;;;0.90;99.90;;;;;;4998732;28;20566;-83
2022/04/02 06:06:27;;;;;;;4.53;2.00;;;1.00;99.90;;;;;;4998016;28;20171;-87
2022/04/02 06:08:52;;;;;;;5.00;2.03;;;1.00;99.90;;;;;;4998905;28;20184;-86
2022/04/02 06:11:18;;;;;;;2.93;1.70;;;1.00;99.90;;;;;;4998659;28;20175;-87
2022/04/02 06:13:43;;;;;;;4.40;1.63;;;1.10;99.90;;;;;;4997601;28;20273;-87
2022/04/02 06:16:09;;;;;;;4.23;1.60;;;1.10;99.90;;;;;;4999035;28;20168;-87
2022/04/02 06:18:36;;;;;;;2.53;1.80;;;1.10;99.90;;;;;;4998756;28;20189;-86
2022/04/02 06:21:03;;;;;;;2.87;1.70;;;1.20;99.90;;;;;;4998507;28;20175;-88
2022/04/02 06:23:31;;;;;;;3.93;1.60;;;1.20;99.90;;;;;;4998120;28;20527;-87
2022/04/02 06:25:57;;;;;;;6.97;1.83;;;1.20;99.90;;;;;;4998620;28;20165;-87
2022/04/02 06:28:23;;;;;;;5.13;1.93;;;1.40;99.90;;;;;;4998373;28;20270;-87
2022/04/02 06:30:49;;;;;;;3.40;1.90;;;1.40;99.90;;;;;;4979894;28;20192;-87
2022/04/02 06:33:15;;;;;;;3.27;1.90;;;1.40;99.90;;;;;;4978655;28;20207;-88
2022/04/02 06:35:41;;;;;;;4.63;1.80;;;1.40;99.90;;;;;;4977975;28;20176;-88
2022/04/02 06:38:07;;;;;;;5.77;1.60;;;1.50;99.90;;;;;;4977805;28;20177;-86
2022/04/02 06:40:32;;;;;;;2.80;1.70;;;1.50;99.90;;;;;;4979018;28;20183;-86
2022/04/02 06:42:58;;;;;;;3.43;1.87;;;1.60;99.90;;;;;;4978997;28;20265;-87
2022/04/02 06:45:27;;;;;;;5.20;1.60;;;1.50;99.90;;;;;;4979043;28;20154;-88
2022/04/02 06:47:52;;;;;;;4.50;1.80;;;1.50;99.90;;;;;;4978601;28;20206;-88
2022/04/02 06:50:18;;;;;;;2.77;1.70;;;1.60;99.90;;;;;;4978733;28;20177;-88
2022/04/02 06:52:45;;;;;;;3.70;1.87;;;1.70;99.90;;;;;;4983035;28;20199;-88
2022/04/02 06:55:12;;;;;;;3.27;1.60;;;1.80;99.90;;;;;;4986593;28;20168;-86
2022/04/02 06:57:49;;;;;;;4.83;1.90;;;1.60;99.90;;;;;;4983824;28;20204;-89
2022/04/02 07:00:15;;;;;;;4.87;2.00;;;1.60;99.90;;;;;;4978658;28;20492;-89
2022/04/02 07:02:41;;;;;;;2.93;2.00;;;1.60;99.90;;;;;;4981578;28;20229;-88
2022/04/02 07:05:07;;;;;;;2.87;1.80;;;1.70;99.90;;;;;;4997727;28;20167;-87
2022/04/02 07:07:34;;;;;;;5.00;2.10;;;1.80;99.90;;;;;;4998053;28;20194;-87
2022/04/02 07:09:59;;;;;;;4.90;2.00;;;1.80;99.90;;;;;;4997508;28;20179;-88
2022/04/02 07:12:25;;;;;;;3.77;2.10;;;1.90;99.90;;;;;;4997954;28;20184;-87
2022/04/02 07:14:50;;;;;;;3.50;2.00;;;1.80;99.90;;;;;;4997860;28;20187;-86
2022/04/02 07:17:16;;;;;;;6.43;2.23;;;1.90;99.90;;;;;;4997776;28;20513;-87
2022/04/02 07:19:42;;;;;;;4.23;2.27;;;1.90;99.90;;;;;;4997559;28;20227;-88
2022/04/02 07:22:09;;;;;;;4.07;2.07;;;1.90;99.90;;;;;;4997171;28;20241;-87
2022/04/02 07:24:38;;;;;;;2.67;1.77;;;1.90;99.90;;;;;;4997625;28;20182;-88
2022/04/02 07:27:05;;;;;;;3.47;2.07;;;1.90;99.90;;;;;;4997740;28;20481;-86
2022/04/02 07:29:32;;;;;;;3.37;1.90;;;2.00;99.90;;;;;;4997395;28;20193;-88
2022/04/02 07:31:58;;;;;;;2.67;1.40;;;1.90;99.90;;;;;;4997338;28;20180;-86
2022/04/02 07:34:24;;;;;;;4.33;1.80;;;2.00;99.90;;;;;;4997374;28;20225;-86
2022/04/02 07:37:05;;;;;;;5.40;1.60;;;2.00;99.90;;;;;;4996023;28;20176;-88
2022/04/02 07:39:48;;;;;;;5.23;2.00;;;2.10;99.90;;;;;;4997358;28;20499;-87
2022/04/02 07:42:26;;;;;;;5.83;2.03;;;2.00;99.90;;;;;;4997230;28;20175;-89
2022/04/02 07:45:07;;;;;;;6.27;2.03;;;2.10;99.90;;;;;;4996757;28;20271;-88
2022/04/02 07:47:37;;;;;;;3.23;1.80;;;2.20;99.90;;;;;;4997403;28;20172;-87
2022/04/02 07:50:07;;;;;;;4.27;1.60;;;2.10;99.90;;;;;;4997322;28;20185;-87
2022/04/02 07:52:33;;;;;;;3.63;1.73;;;2.20;99.90;;;;;;4996758;28;20195;-86
2022/04/02 07:55:01;;;;;;;4.93;2.10;;;2.20;99.90;;;;;;4996868;28;20200;-87
2022/04/02 07:57:47;;;;;;;3.57;1.77;;;2.20;99.90;;;;;;4996944;28;20176;-87
2022/04/02 08:00:17;;;;;;;4.13;2.03;;;2.20;99.90;;;;;;4997147;28;20526;-87
2022/04/02 08:02:45;;;;;;;5.63;2.20;;;2.20;99.90;;;;;;4996512;28;20194;-86
2022/04/02 08:05:20;;;;;;;3.60;1.93;;;2.30;99.90;;;;;;4996764;28;20175;-85
2022/04/02 08:07:50;;;;;;;3.70;1.87;;;2.30;99.90;;;;;;4996753;28;20513;-86
2022/04/02 08:10:21;;;;;;;4.47;1.83;;;2.40;99.90;;;;;;4996632;28;20177;-84
2022/04/02 08:12:47;;;;;;;7.97;2.10;;;2.40;99.90;;;;;;4995332;28;20196;-86
2022/04/02 08:15:18;;;;;;;3.97;2.20;;;2.50;99.90;;;;;;4995051;28;20184;-84
2022/04/02 08:17:46;;;;;;;5.67;2.80;;;2.60;99.90;;;;;;4996495;28;20251;-86
2022/04/02 08:20:15;;;;;;;4.40;1.80;;;2.60;99.90;;;;;;4996329;28;20231;-86
2022/04/02 08:22:42;;;;;;;3.73;2.00;;;2.70;99.90;;;;;;4995141;28;20180;-85
2022/04/02 08:25:08;;;;;;;2.93;1.83;;;2.70;99.90;;;;;;4996368;28;20230;-87
2022/04/02 08:27:45;;;;;;;4.53;2.07;;;2.70;99.90;;;;;;4996545;28;20171;-85
2022/04/02 08:30:17;;;;;;;5.60;2.00;;;2.70;99.90;;;;;;4996179;28;20262;-86
2022/04/02 08:33:16;;;;;;;3.50;1.67;;;2.80;99.90;;;;;;4995990;28;20196;-84
2022/04/02 08:36:05;;;;;;;3.30;1.80;;;2.90;99.90;;;;;;4994540;28;20176;-86
2022/04/02 08:38:46;;;;;;;3.23;1.97;;;2.90;99.90;;;;;;4996263;28;20161;-85
2022/04/02 08:41:21;;;;;;;2.97;1.80;;;2.90;99.90;;;;;;4996149;28;20176;-85
2022/04/02 08:44:24;;;;;;;5.47;2.70;;;2.80;99.90;;;;;;4995971;28;20175;-85
2022/04/02 08:47:08;;;;;;;5.30;2.13;;;3.00;99.90;;;;;;4996011;28;20541;-86
2022/04/02 08:49:53;;;;;;;5.63;2.13;;;3.00;99.90;;;;;;4995590;28;20242;-86
2022/04/02 08:52:21;;;;;;;5.00;1.93;;;3.00;99.90;;;;;;4995700;28;20677;-87
2022/04/02 08:54:52;;;;;;;7.60;2.20;;;3.10;99.90;;;;;;4995512;28;20668;-85
2022/04/02 08:57:50;;;;;;;4.40;1.90;;;3.00;99.90;;;;;;4995765;28;20167;-85
2022/04/02 09:00:23;;;;;;;4.40;1.80;;;3.20;99.90;;;;;;4993684;28;20201;-85
2022/04/02 09:03:07;;;;;;;5.10;1.83;;;3.30;99.90;;;;;;4995427;28;20165;-84
2022/04/02 09:05:59;;;;;;;3.10;1.57;;;3.40;99.90;;;;;;4995030;28;20179;-86
2022/04/02 09:08:55;;;;;;;3.87;1.80;;;3.40;99.90;;;;;;4995378;28;20539;-86
2022/04/02 09:11:25;;;;;;;3.83;2.10;;;3.50;99.90;;;;;;4995469;28;20227;-85
2022/04/02 09:14:30;;;;;;;3.83;1.87;;;3.50;99.90;;;;;;4995427;28;20207;-86
2022/04/02 09:17:19;;;;;;;3.63;1.73;;;3.60;99.90;;;;;;4995481;28;20248;-84
2022/04/02 09:20:09;;;;;;;5.20;2.07;;;3.60;99.90;;;;;;4992323;28;20749;-84
2022/04/02 09:22:50;;;;;;;5.03;1.83;;;3.70;99.90;;;;;;4973702;28;20180;-86
2022/04/02 09:25:21;;;;;;;2.13;1.50;;;3.70;99.90;;;;;;4975815;28;20169;-85
2022/04/02 09:27:56;;;;;;;2.60;1.60;;;3.80;99.90;;;;;;4975724;28;20208;-84
2022/04/02 09:30:54;;;;;;;4.33;2.07;;;3.80;99.90;;;;;;4974429;28;20519;-85
2022/04/02 09:33:38;;;;;;;4.10;1.90;;;3.90;99.90;;;;;;4975497;28;20193;-86
2022/04/02 09:36:25;;;;;;;3.43;1.70;;;3.90;99.90;;;;;;4975568;28;20637;-84
2022/04/02 09:39:02;;;;;;;3.13;1.90;;;4.00;99.90;;;;;;4975795;28;20167;-85
2022/04/02 09:41:59;;;;;;;3.53;2.00;;;4.10;99.90;;;;;;4975548;28;20260;-85
2022/04/02 09:44:56;;;;;;;4.50;1.53;;;3.80;99.90;;;;;;4975617;28;20168;-85
2022/04/02 09:48:03;;;;;;;5.27;2.00;;;3.90;99.90;;;;;;4975736;28;20166;-86
2022/04/02 09:50:30;;;;;;;4.07;1.87;;;4.00;99.90;;;;;;4967870;28;20700;-85
2022/04/02 09:52:58;;;;;;;3.40;1.80;;;4.00;99.90;;;;;;4975250;28;20291;-83
2022/04/02 09:55:28;;;;;;;2.87;1.70;;;4.00;99.90;;;;;;4974470;28;20618;-84
2022/04/02 09:58:27;;;;;;;6.40;2.57;;;4.10;99.90;;;;;;4975265;28;20170;-86
2022/04/02 10:01:08;;;;;;;3.87;1.87;;;4.10;99.60;;;;;;4993732;28;20213;-85
2022/04/02 10:04:07;;;;;;;5.50;2.30;;;4.20;99.20;;;;;;4994790;28;20216;-84
2022/04/02 10:06:41;;;;;;;3.03;1.73;;;4.20;98.80;;;;;;4994566;28;20692;-86
2022/04/02 10:09:11;;;;;;;4.93;2.10;;;4.20;98.10;;;;;;4994893;28;20192;-86
2022/04/02 10:11:52;;;;;;;9.77;2.00;;;4.30;98.00;;;;;;4994670;28;20168;-85
2022/04/02 10:14:22;;;;;;;4.00;2.07;;;4.30;97.30;;;;;;4994749;28;20276;-84
2022/04/02 10:17:01;;;;;;;5.23;1.70;;;4.30;97.80;;;;;;4994696;28;20188;-85
2022/04/02 10:19:30;;;;;;;3.60;1.77;;;4.30;97.40;;;;;;4994438;28;20297;-85
2022/04/02 10:22:01;;;;;;;5.10;2.00;;;4.40;96.40;;;;;;4994437;28;20179;-85
2022/04/02 10:24:30;;;;;;;2.87;1.60;;;4.50;96.80;;;;;;4994746;28;20167;-85
2022/04/02 10:26:57;;;;;;;3.53;1.63;;;4.40;96.90;;;;;;4993522;28;20576;-85
2022/04/02 10:29:52;;;;;;;3.10;1.97;;;4.40;96.10;;;;;;4993212;28;20279;-85
2022/04/02 10:32:49;;;;;;;3.67;2.10;;;4.50;96.70;;;;;;4993333;28;20210;-84
2022/04/02 10:35:15;;;;;;;3.07;1.70;;;4.60;96.80;;;;;;4993170;28;20608;-84
2022/04/02 10:37:42;;;;;;;4.47;2.10;;;4.70;96.40;;;;;;4992997;28;20203;-84
2022/04/02 10:40:16;;;;;;;5.10;1.70;;;4.90;96.70;;;;;;4993151;28;20187;-83
2022/04/02 10:42:56;;;;;;;4.00;1.93;;;4.90;96.40;;;;;;4994395;28;20164;-83
2022/04/02 10:45:22;;;;;;;5.37;2.40;;;4.90;96.30;;;;;;4977694;28;20192;-84
2022/04/02 10:47:50;;;;;;;2.97;1.83;;;5.00;96.20;;;;;;4997893;28;20254;-85
2022/04/02 10:50:19;;;;;;;6.10;1.70;;;4.90;95.20;;;;;;4997824;28;20172;-84
2022/04/02 10:52:50;;;;;;;8.60;3.27;;;5.00;94.90;;;;;;4997501;28;20176;-83
2022/04/02 10:55:19;;;;;;;7.07;2.57;;;5.30;95.20;;;;;;4997707;28;20194;-84
2022/04/02 10:57:47;;;;;;;6.23;1.83;;;5.40;94.90;;;;;;4997656;28;20168;-82
2022/04/02 11:00:13;;;;;;;4.73;1.70;;;5.60;92.50;;;;;;4997747;28;20188;-83
2022/04/02 11:02:43;;;;;;;5.30;2.53;;;5.60;92.50;;;;;;4997494;28;20176;-82
2022/04/02 11:05:11;;;;;;;2.67;1.70;;;5.50;92.20;;;;;;4997578;28;20180;-83
2022/04/02 11:07:45;;;;;;;2.40;1.60;;;5.70;92.80;;;;;;4997162;28;20486;-82
2022/04/02 11:10:16;;;;;;;4.00;1.93;;;5.60;92.40;;;;;;4997255;28;20307;-83
2022/04/02 11:12:44;;;;;;;2.10;1.40;;;5.60;92.60;;;;;;4997504;28;20522;-84
2022/04/02 11:15:24;;;;;;;3.07;1.83;;;5.70;91.30;;;;;;4995937;28;20721;-84
2022/04/02 11:17:55;;;;;;;3.53;2.20;;;5.60;90.80;;;;;;4997412;28;20164;-83
2022/04/02 11:20:23;;;;;;;4.33;1.80;;;5.50;90.80;;;;;;4997288;28;20230;-83
2022/04/02 11:22:51;;;;;;;4.40;1.53;;;5.70;91.30;;;;;;4996930;28;20295;-82
2022/04/02 11:25:29;;;;;;;3.63;1.73;;;5.60;90.90;;;;;;4997302;28;20176;-81
2022/04/02 11:28:05;;;;;;;4.97;2.23;;;5.70;91.70;;;;;;4995900;28;20179;-84
2022/04/02 11:30:32;;;;;;;9.13;3.23;;;5.60;92.40;;;;;;4997202;28;20186;-80
2022/04/02 11:33:16;;;;;;;3.73;1.83;;;5.40;93.00;;;;;;4997096;28;20195;-80
2022/04/02 11:35:53;;;;;;;5.00;1.97;;;5.30;93.30;;;;;;4997051;28;20607;-80
2022/04/02 11:38:22;;;;;;;4.73;1.90;;;5.10;94.00;;;;;;4996639;28;20168;-81
2022/04/02 11:41:21;;;;;;;2.07;1.53;;;5.10;94.10;;;;;;4995684;28;20183;-80
2022/04/02 11:43:48;;;;;;;3.63;1.90;;;5.00;94.30;;;;;;4995653;28;20184;-80
2022/04/02 11:46:17;;;;;;;6.47;3.10;;;5.00;94.00;;;;;;4996744;28;20175;-80
2022/04/02 11:48:58;;;;;;;4.07;2.00;;;5.10;93.90;;;;;;4996744;28;20202;-79
2022/04/02 11:51:30;;;;;;;4.87;2.53;;;5.10;94.10;;;;;;4996360;28;20180;-80
2022/04/02 11:54:07;;;;;;;4.30;2.30;;;5.20;94.20;;;;;;4996543;28;20207;-79
2022/04/02 11:56:39;;;;;;;3.47;1.70;;;5.30;94.50;;;;;;4996690;28;20554;-83
2022/04/02 11:59:09;;;;;;;4.80;1.70;;;5.40;93.30;;;;;;4996435;28;20239;-84
2022/04/02 12:01:51;;;;;;;3.37;1.70;;;5.50;93.40;;;;;;4996367;28;20168;-85
2022/04/02 12:04:18;;;;;;;3.33;1.93;;;5.50;93.60;;;;;;4996579;28;20168;-84
2022/04/02 12:06:47;;;;;;;4.70;2.27;;;5.50;92.80;;;;;;4996239;28;20215;-83
2022/04/02 12:09:20;;;;;;;4.67;2.07;;;5.30;93.60;;;;;;4996364;28;20553;-84
2022/04/02 12:11:53;;;;;;;3.40;2.23;;;5.20;94.00;;;;;;4996482;28;20178;-84
2022/04/02 12:14:35;;;;;;;9.07;4.07;;;5.20;94.20;;;;;;4996266;28;20213;-84
2022/04/02 12:17:11;;;;;;;27.77;3.33;;;5.10;94.00;;;;;;4996382;28;20153;-83
2022/04/02 12:19:52;;;;;;;4.70;1.90;;;5.00;94.00;;;;;;4995851;28;20278;-83
2022/04/02 12:22:31;;;;;;;6.47;2.53;;;5.10;94.30;;;;;;4995812;28;20665;-84
2022/04/02 12:25:08;;;;;;;4.70;2.33;;;5.20;93.80;;;;;;4994858;28;20642;-84
2022/04/02 12:27:38;;;;;;;4.97;1.80;;;5.20;94.20;;;;;;4996124;28;20187;-84
2022/04/02 12:30:07;;;;;;;3.70;2.00;;;5.20;94.40;;;;;;4996074;28;20230;-84
2022/04/02 12:32:38;;;;;;;4.93;2.60;;;5.30;94.20;;;;;;4994511;28;20190;-84
2022/04/02 12:35:05;;;;;;;5.77;2.23;;;5.40;94.00;;;;;;4996140;28;20607;-85
2022/04/02 12:37:40;;;;;;;2.77;1.90;;;5.40;92.70;;;;;;4994428;28;20557;-85
2022/04/02 12:40:22;;;;;;;12.63;5.00;;;5.50;93.70;;;;;;4995871;28;20214;-85
2022/04/02 12:42:53;;;;;;;4.57;2.00;;;5.60;93.30;;;;;;4994407;28;20183;-84
2022/04/02 12:45:24;;;;;;;4.03;1.87;;;5.80;94.20;;;;;;4995805;28;20267;-85
2022/04/02 12:48:14;;;;;;;3.50;2.00;;;6.00;92.50;;;;;;4995892;28;20600;-85
2022/04/02 12:51:00;;;;;;;1.70;1.40;;;6.00;92.20;;;;;;4995805;28;20219;-84
2022/04/02 12:53:38;;;;;;;2.93;1.30;;;6.00;91.80;;;;;;4995095;28;20570;-84
2022/04/02 12:56:06;;;;;;;2.50;1.50;;;5.90;91.70;;;;;;4995723;28;20649;-86
2022/04/02 12:58:36;;;;;;;5.27;1.40;;;5.80;92.50;;;;;;4995624;28;20168;-85
2022/04/02 13:01:12;;;;;;;4.40;2.60;;;5.90;92.10;;;;;;4994369;28;20175;-84
2022/04/02 13:04:03;;;;;;;1.83;1.50;;;5.90;92.00;;;;;;4995513;28;20163;-84
2022/04/02 13:06:32;;;;;;;2.97;1.70;;;6.00;91.90;;;;;;4988692;28;20641;-84
2022/04/02 13:09:21;;;;;;;3.57;1.80;;;6.00;92.20;;;;;;4994802;28;20175;-83
2022/04/02 13:11:53;;;;;;;3.20;1.73;;;6.00;91.70;;;;;;4994969;28;20160;-82
2022/04/02 13:14:38;;;;;;;2.90;1.50;;;6.20;91.80;;;;;;4995226;28;20207;-82
2022/04/02 13:17:15;;;;;;;4.70;2.60;;;6.10;90.80;;;;;;4995243;28;20215;-80
2022/04/02 13:22:41;;;;;;;2.87;1.70;;;6.00;90.00;;;;;;4994795;28;20170;-84